Time;durP1;ratioP1;P1;durP2;ratioP2;P2;SDS_P1;SDS_P2;PMS_P1;PMS_P2;Temp;Humidity;BMP_temperature;BMP_pressure;BME280_temperature;BME280_humidity;BME280_pressure;Samples;Min_cycle;Max_cycle;Signal;HPM_P1;HPM_P2
2022/05/29 00:00:07;;;;;;;0.05;0.05;;;;;;;;;;6227893;23;20031;-50
2022/05/29 00:02:32;;;;;;;0.10;0.10;;;;;;;;;;6237262;23;20022;-53
2022/05/29 00:04:57;;;;;;;0.00;0.00;;;;;;;;;;6226795;23;20019;-50
2022/05/29 00:07:23;;;;;;;0.00;0.00;;;;;;;;;;6238095;23;20095;-54
2022/05/29 00:09:49;;;;;;;0.00;0.00;;;;;;;;;;6232119;23;20131;-50
2022/05/29 00:12:15;;;;;;;0.00;0.00;;;;;;;;;;6239352;23;20012;-52
2022/05/29 00:14:41;;;;;;;0.00;0.00;;;;;;;;;;6234049;23;20389;-52
2022/05/29 00:17:07;;;;;;;0.00;0.00;;;;;;;;;;6238156;23;20006;-48
2022/05/29 00:19:32;;;;;;;0.00;0.00;;;;;;;;;;6232544;23;20016;-49
2022/05/29 00:21:57;;;;;;;0.00;0.00;;;;;;;;;;6239265;23;20016;-52
2022/05/29 00:24:23;;;;;;;0.10;0.10;;;;;;;;;;6236075;23;20447;-52
2022/05/29 00:26:49;;;;;;;0.60;0.60;;;;;;;;;;6235389;23;20024;-50
2022/05/29 00:29:14;;;;;;;0.10;0.10;;;;;;;;;;6234409;23;20004;-47
2022/05/29 00:31:39;;;;;;;0.20;0.20;;;;;;;;;;6234450;23;20008;-50
2022/05/29 00:34:05;;;;;;;0.00;0.00;;;;;;;;;;6233568;23;20008;-52
2022/05/29 00:36:32;;;;;;;0.10;0.10;;;;;;;;;;6236387;23;20019;-49
2022/05/29 00:38:57;;;;;;;0.10;0.10;;;;;;;;;;6233043;23;20083;-50
2022/05/29 00:41:27;;;;;;;0.10;0.10;;;;;;;;;;6236569;23;20024;-48
2022/05/29 00:44:05;;;;;;;0.00;0.00;;;;;;;;;;6234811;23;20355;-54
2022/05/29 00:46:31;;;;;;;0.03;0.03;;;;;;;;;;6235234;23;20043;-51
2022/05/29 00:48:57;;;;;;;0.00;0.00;;;;;;;;;;6233143;23;20004;-53
2022/05/29 00:51:23;;;;;;;0.03;0.03;;;;;;;;;;6208863;23;20019;-52
2022/05/29 00:53:49;;;;;;;0.00;0.00;;;;;;;;;;6234271;23;20016;-51
2022/05/29 00:56:14;;;;;;;0.00;0.00;;;;;;;;;;6235271;23;20028;-49
2022/05/29 00:58:39;;;;;;;0.40;0.40;;;;;;;;;;6235238;23;20000;-50
2022/05/29 01:01:05;;;;;;;0.00;0.00;;;;;;;;;;6238636;23;20052;-50
2022/05/29 01:03:30;;;;;;;0.00;0.00;;;;;;;;;;6231904;23;20018;-50
2022/05/29 01:05:55;;;;;;;0.10;0.10;;;;;;;;;;6237127;23;20016;-51
2022/05/29 01:08:32;;;;;;;0.10;0.10;;;;;;;;;;6232088;23;20051;-49
2022/05/29 01:10:57;;;;;;;0.00;0.00;;;;;;;;;;6236417;23;20027;-52
2022/05/29 01:13:37;;;;;;;0.05;0.05;;;;;;;;;;6236218;23;20005;-49
2022/05/29 01:16:03;;;;;;;0.00;0.00;;;;;;;;;;6231088;23;20012;-50
2022/05/29 01:18:39;;;;;;;0.00;0.00;;;;;;;;;;6236879;23;20027;-50
2022/05/29 01:21:04;;;;;;;0.00;0.00;;;;;;;;;;6235498;23;20076;-53
2022/05/29 01:23:48;;;;;;;0.10;0.10;;;;;;;;;;6235395;23;20042;-50
2022/05/29 01:26:40;;;;;;;0.03;0.03;;;;;;;;;;6236290;23;20023;-52
2022/05/29 01:29:06;;;;;;;0.00;0.00;;;;;;;;;;6236294;23;20677;-49
2022/05/29 01:31:50;;;;;;;0.00;0.00;;;;;;;;;;6233822;23;20012;-49
2022/05/29 01:34:15;;;;;;;0.00;0.00;;;;;;;;;;6239510;23;20071;-49
2022/05/29 01:37:02;;;;;;;0.10;0.10;;;;;;;;;;6230682;23;20020;-51
2022/05/29 01:39:33;;;;;;;0.00;0.00;;;;;;;;;;6236066;23;20020;-51
2022/05/29 01:42:04;;;;;;;0.10;0.10;;;;;;;;;;6235067;23;20024;-52
2022/05/29 01:44:44;;;;;;;0.10;0.10;;;;;;;;;;6236439;23;20045;-49
2022/05/29 01:47:21;;;;;;;0.03;0.03;;;;;;;;;;6234804;23;20016;-48
2022/05/29 01:49:59;;;;;;;0.10;0.10;;;;;;;;;;6230390;23;20008;-51
2022/05/29 01:52:43;;;;;;;0.10;0.10;;;;;;;;;;6236931;23;20031;-50
2022/05/29 01:55:16;;;;;;;0.10;0.10;;;;;;;;;;6237064;23;20035;-49
2022/05/29 01:57:43;;;;;;;0.10;0.10;;;;;;;;;;6236463;23;20047;-49
2022/05/29 02:00:13;;;;;;;0.10;0.10;;;;;;;;;;6228529;23;20020;-52
2022/05/29 02:02:38;;;;;;;;;;;;;;;;;;6232679;23;20009;-50
2022/05/29 02:05:07;;;;;;;0.10;0.10;;;;;;;;;;6233907;23;19930;-52
2022/05/29 02:07:49;;;;;;;0.10;0.10;;;;;;;;;;6236704;23;20260;-48
2022/05/29 02:10:33;;;;;;;0.08;0.08;;;;;;;;;;6235902;23;20043;-48
2022/05/29 02:12:58;;;;;;;0.10;0.10;;;;;;;;;;6235410;23;20425;-51
2022/05/29 02:15:35;;;;;;;10.95;0.43;;;;;;;;;;6235217;23;20102;-50
2022/05/29 02:18:02;;;;;;;0.13;0.13;;;;;;;;;;6233654;23;20069;-53
2022/05/29 02:20:30;;;;;;;0.08;0.08;;;;;;;;;;6236247;23;20021;-48
2022/05/29 02:22:59;;;;;;;0.10;0.10;;;;;;;;;;6235737;23;20012;-50
2022/05/29 02:25:26;;;;;;;0.10;0.10;;;;;;;;;;6230810;23;20016;-51
2022/05/29 02:27:54;;;;;;;0.00;0.00;;;;;;;;;;6235733;23;20473;-49
2022/05/29 02:30:22;;;;;;;0.10;0.10;;;;;;;;;;6233660;23;20099;-48
2022/05/29 02:32:59;;;;;;;0.10;0.10;;;;;;;;;;6226917;23;20012;-51
2022/05/29 02:35:38;;;;;;;0.10;0.10;;;;;;;;;;6235935;23;20079;-51
2022/05/29 02:38:03;;;;;;;0.10;0.10;;;;;;;;;;6235830;23;20012;-52
2022/05/29 02:40:37;;;;;;;0.10;0.10;;;;;;;;;;6234183;23;20100;-48
2022/05/29 02:43:14;;;;;;;0.10;0.10;;;;;;;;;;6237976;23;20043;-52
2022/05/29 02:45:39;;;;;;;0.13;0.13;;;;;;;;;;6230943;23;20047;-51
2022/05/29 02:48:08;;;;;;;0.07;0.07;;;;;;;;;;6234166;23;20067;-52
2022/05/29 02:50:40;;;;;;;0.10;0.10;;;;;;;;;;6165993;22;20439;-54
2022/05/29 02:53:10;;;;;;;1.00;0.22;;;;;;;;;;6191486;23;20020;-52
2022/05/29 02:55:36;;;;;;;1.67;1.58;;;;;;;;;;6204432;23;20036;-53
2022/05/29 02:58:04;;;;;;;0.10;0.10;;;;;;;;;;6196943;23;20022;-54
2022/05/29 03:00:32;;;;;;;0.00;0.00;;;;;;;;;;6197961;23;20009;-55
2022/05/29 03:03:21;;;;;;;0.00;0.00;;;;;;;;;;6204923;23;20031;-54
2022/05/29 03:05:58;;;;;;;0.10;0.10;;;;;;;;;;6191558;23;20008;-54
2022/05/29 03:08:29;;;;;;;0.10;0.10;;;;;;;;;;6203908;23;20022;-56
2022/05/29 03:11:01;;;;;;;0.00;0.00;;;;;;;;;;6199812;23;20013;-55
2022/05/29 03:13:34;;;;;;;0.10;0.10;;;;;;;;;;6198667;23;20039;-55
2022/05/29 03:16:02;;;;;;;0.00;0.00;;;;;;;;;;6206522;23;20017;-55
2022/05/29 03:18:38;;;;;;;0.10;0.10;;;;;;;;;;6204114;23;20005;-53
2022/05/29 03:21:06;;;;;;;0.10;0.10;;;;;;;;;;6198891;23;20051;-55
2022/05/29 03:23:55;;;;;;;0.10;0.10;;;;;;;;;;6203357;23;20024;-55
2022/05/29 03:26:35;;;;;;;0.10;0.10;;;;;;;;;;6206800;23;20047;-55
2022/05/29 03:29:10;;;;;;;0.10;0.10;;;;;;;;;;6206270;23;20024;-53
2022/05/29 03:31:36;;;;;;;0.10;0.10;;;;;;;;;;6203724;23;20028;-55
2022/05/29 03:34:02;;;;;;;0.03;0.03;;;;;;;;;;6202740;23;20013;-56
2022/05/29 03:36:30;;;;;;;0.10;0.10;;;;;;;;;;6199629;23;20027;-54
2022/05/29 03:38:56;;;;;;;0.10;0.10;;;;;;;;;;6203181;23;20079;-56
2022/05/29 03:41:31;;;;;;;0.00;0.00;;;;;;;;;;6204866;23;20028;-54
2022/05/29 03:43:56;;;;;;;0.10;0.10;;;;;;;;;;6200733;23;20020;-53
2022/05/29 03:46:21;;;;;;;0.00;0.00;;;;;;;;;;6202949;23;20433;-55
2022/05/29 03:48:47;;;;;;;0.10;0.10;;;;;;;;;;6178825;23;20129;-56
2022/05/29 03:51:12;;;;;;;0.00;0.00;;;;;;;;;;6204175;23;20487;-53
2022/05/29 03:53:37;;;;;;;0.10;0.10;;;;;;;;;;6202287;23;20016;-54
2022/05/29 03:56:04;;;;;;;0.00;0.00;;;;;;;;;;6201221;23;20021;-55
2022/05/29 03:58:30;;;;;;;0.10;0.10;;;;;;;;;;6203292;23;20402;-56
2022/05/29 04:00:55;;;;;;;0.10;0.10;;;;;;;;;;6205577;23;20037;-55
2022/05/29 04:03:20;;;;;;;0.03;0.03;;;;;;;;;;6204934;23;20677;-55
2022/05/29 04:05:46;;;;;;;0.10;0.10;;;;;;;;;;6202606;23;20008;-55
2022/05/29 04:13:40;;;;;;;0.10;0.10;;;;;;;;;;6202716;23;20019;-55
2022/05/29 04:16:05;;;;;;;0.10;0.10;;;;;;;;;;6206714;23;20009;-54
2022/05/29 04:18:31;;;;;;;0.10;0.10;;;;;;;;;;6204060;23;20019;-56
2022/05/29 04:20:56;;;;;;;0.10;0.10;;;;;;;;;;6202528;23;20185;-55
2022/05/29 04:23:21;;;;;;;0.10;0.10;;;;;;;;;;6204796;23;20017;-53
2022/05/29 04:25:47;;;;;;;0.17;0.17;;;;;;;;;;6203544;23;20017;-56
2022/05/29 04:28:12;;;;;;;0.00;0.00;;;;;;;;;;6205959;23;20074;-55
2022/05/29 04:30:38;;;;;;;0.13;0.13;;;;;;;;;;6199027;23;20015;-55
2022/05/29 04:33:03;;;;;;;3.15;1.38;;;;;;;;;;6204965;23;20595;-52
2022/05/29 04:35:39;;;;;;;0.10;0.10;;;;;;;;;;6205670;23;20012;-55
2022/05/29 04:38:04;;;;;;;0.30;0.30;;;;;;;;;;6205657;23;20009;-56
2022/05/29 04:40:32;;;;;;;1.95;0.22;;;;;;;;;;6201524;23;20039;-56
2022/05/29 04:42:58;;;;;;;0.05;0.05;;;;;;;;;;6207974;23;20015;-55
2022/05/29 04:45:23;;;;;;;0.15;0.15;;;;;;;;;;6199296;23;20009;-53
2022/05/29 04:47:48;;;;;;;0.35;0.35;;;;;;;;;;6204188;23;20005;-56
2022/05/29 04:50:14;;;;;;;0.10;0.10;;;;;;;;;;6201568;23;20035;-55
2022/05/29 04:52:39;;;;;;;0.03;0.03;;;;;;;;;;6205808;23;20015;-55
2022/05/29 04:55:05;;;;;;;0.00;0.00;;;;;;;;;;6202261;23;20043;-55
2022/05/29 04:57:31;;;;;;;0.10;0.10;;;;;;;;;;6206743;23;20021;-53
2022/05/29 04:59:57;;;;;;;0.00;0.00;;;;;;;;;;6205434;23;20009;-54
2022/05/29 05:02:23;;;;;;;0.00;0.00;;;;;;;;;;6205543;23;20017;-53
2022/05/29 05:04:49;;;;;;;0.10;0.10;;;;;;;;;;6204973;23;20043;-53
2022/05/29 05:07:14;;;;;;;0.05;0.05;;;;;;;;;;6206233;23;20011;-58
2022/05/29 05:09:40;;;;;;;0.10;0.10;;;;;;;;;;6204567;23;20064;-57
2022/05/29 05:12:05;;;;;;;0.13;0.13;;;;;;;;;;6182806;23;20044;-57
2022/05/29 05:14:30;;;;;;;4.03;1.45;;;;;;;;;;6202657;23;20123;-57
2022/05/29 05:16:56;;;;;;;0.10;0.10;;;;;;;;;;6180830;23;20016;-58
2022/05/29 05:19:22;;;;;;;0.10;0.10;;;;;;;;;;6205102;23;20009;-56
2022/05/29 05:21:48;;;;;;;0.10;0.10;;;;;;;;;;6207621;23;20029;-57
2022/05/29 05:24:14;;;;;;;0.10;0.10;;;;;;;;;;6176382;23;20043;-57
2022/05/29 05:26:39;;;;;;;0.10;0.10;;;;;;;;;;6205775;23;20008;-56
2022/05/29 05:29:04;;;;;;;0.00;0.00;;;;;;;;;;6199799;23;20020;-56
2022/05/29 05:31:30;;;;;;;0.00;0.00;;;;;;;;;;6206601;23;20020;-56
2022/05/29 05:33:55;;;;;;;0.10;0.10;;;;;;;;;;6203726;23;20027;-56
2022/05/29 05:36:21;;;;;;;0.20;0.20;;;;;;;;;;6204816;23;20068;-57
2022/05/29 05:38:46;;;;;;;0.10;0.10;;;;;;;;;;6203397;23;20013;-56
2022/05/29 05:41:12;;;;;;;0.10;0.10;;;;;;;;;;6202716;23;20028;-56
2022/05/29 05:43:39;;;;;;;0.10;0.10;;;;;;;;;;6207682;23;20005;-56
2022/05/29 05:46:08;;;;;;;3.28;0.28;;;;;;;;;;6199985;23;20021;-56
2022/05/29 05:48:33;;;;;;;0.10;0.10;;;;;;;;;;6204071;23;20477;-57
2022/05/29 05:50:59;;;;;;;0.10;0.10;;;;;;;;;;6202852;23;20042;-56
2022/05/29 05:53:24;;;;;;;0.10;0.10;;;;;;;;;;6206132;23;20463;-57
2022/05/29 05:55:50;;;;;;;0.00;0.00;;;;;;;;;;6203200;23;20013;-55
2022/05/29 05:58:15;;;;;;;0.05;0.05;;;;;;;;;;6204935;23;20024;-56
2022/05/29 06:00:43;;;;;;;0.10;0.10;;;;;;;;;;6201207;23;20051;-56
2022/05/29 06:03:08;;;;;;;0.00;0.00;;;;;;;;;;6206762;23;20021;-54
2022/05/29 06:05:33;;;;;;;0.10;0.10;;;;;;;;;;6204036;23;20012;-56
2022/05/29 06:07:58;;;;;;;0.35;0.35;;;;;;;;;;6206437;23;20454;-57
2022/05/29 06:10:24;;;;;;;0.10;0.10;;;;;;;;;;6203999;23;20009;-55
2022/05/29 06:12:50;;;;;;;0.00;0.00;;;;;;;;;;6179089;23;20027;-55
2022/05/29 06:15:15;;;;;;;0.10;0.10;;;;;;;;;;6204011;23;20361;-56
2022/05/29 06:17:40;;;;;;;0.10;0.10;;;;;;;;;;6204003;23;20016;-55
2022/05/29 06:20:07;;;;;;;0.00;0.00;;;;;;;;;;6204126;23;20037;-57
2022/05/29 06:22:36;;;;;;;0.30;0.30;;;;;;;;;;6206243;23;20031;-57
2022/05/29 06:25:01;;;;;;;0.10;0.10;;;;;;;;;;6204431;23;20008;-56
2022/05/29 06:27:28;;;;;;;0.03;0.03;;;;;;;;;;6202993;23;20009;-57
2022/05/29 06:29:53;;;;;;;0.10;0.10;;;;;;;;;;6206016;23;20020;-57
2022/05/29 06:32:19;;;;;;;0.10;0.10;;;;;;;;;;6204964;23;20032;-56
2022/05/29 06:34:44;;;;;;;0.08;0.08;;;;;;;;;;6201204;23;20599;-57
2022/05/29 06:37:09;;;;;;;0.10;0.10;;;;;;;;;;6204227;23;20016;-57
2022/05/29 06:39:36;;;;;;;0.00;0.00;;;;;;;;;;6202833;23;20001;-55
2022/05/29 06:42:01;;;;;;;0.00;0.00;;;;;;;;;;6203517;23;20241;-57
2022/05/29 06:44:26;;;;;;;0.05;0.00;;;;;;;;;;6201718;23;20009;-55
2022/05/29 06:46:52;;;;;;;0.03;0.03;;;;;;;;;;6204202;23;20013;-57
2022/05/29 06:49:18;;;;;;;0.03;0.03;;;;;;;;;;6174775;23;20019;-56
2022/05/29 06:51:43;;;;;;;0.10;0.10;;;;;;;;;;6202538;23;20024;-57
2022/05/29 06:54:08;;;;;;;0.10;0.10;;;;;;;;;;6204854;23;20104;-55
2022/05/29 06:56:34;;;;;;;0.13;0.13;;;;;;;;;;6199724;23;20009;-55
2022/05/29 06:58:59;;;;;;;0.03;0.03;;;;;;;;;;6203760;23;20078;-57
2022/05/29 07:07:01;;;;;;;0.75;0.40;;;;;;;;;;6204002;23;20086;-55
2022/05/29 07:09:28;;;;;;;0.00;0.00;;;;;;;;;;6178029;23;20017;-56
2022/05/29 07:11:55;;;;;;;0.10;0.10;;;;;;;;;;6200715;23;20032;-58
2022/05/29 07:14:21;;;;;;;0.00;0.00;;;;;;;;;;6205130;23;20361;-55
2022/05/29 07:16:46;;;;;;;0.00;0.00;;;;;;;;;;6201486;23;20351;-56
2022/05/29 07:19:13;;;;;;;1.73;0.43;;;;;;;;;;6205706;23;20008;-54
2022/05/29 07:21:39;;;;;;;0.10;0.10;;;;;;;;;;6204402;23;20017;-56
2022/05/29 07:24:05;;;;;;;0.15;0.15;;;;;;;;;;6204110;23;20423;-57
2022/05/29 07:26:30;;;;;;;0.25;0.25;;;;;;;;;;6206145;23;20036;-56
2022/05/29 07:28:55;;;;;;;0.10;0.10;;;;;;;;;;6203326;23;20027;-56
2022/05/29 07:31:22;;;;;;;0.00;0.00;;;;;;;;;;6205820;23;20029;-54
2022/05/29 07:33:47;;;;;;;0.10;0.10;;;;;;;;;;6201229;23;20028;-55
2022/05/29 07:36:13;;;;;;;0.10;0.10;;;;;;;;;;6207649;23;20017;-54
2022/05/29 07:38:38;;;;;;;0.10;0.10;;;;;;;;;;6202781;23;20024;-55
2022/05/29 07:43:18;;;;;;;0.20;0.20;;;;;;;;;;6201395;23;20020;-55
2022/05/29 07:43:51;;;;;;;0.00;0.00;;;;;;;;;;6198952;23;20017;-57
2022/05/29 07:46:16;;;;;;;0.00;0.00;;;;;;;;;;6205826;23;20019;-55
2022/05/29 07:48:42;;;;;;;3.92;1.17;;;;;;;;;;6171740;23;20013;-53
2022/05/29 07:51:07;;;;;;;0.10;0.10;;;;;;;;;;6206881;23;20044;-56
2022/05/29 07:53:33;;;;;;;0.00;0.00;;;;;;;;;;6168816;23;20020;-56
2022/05/29 07:55:58;;;;;;;0.00;0.00;;;;;;;;;;6204951;23;20008;-55
2022/05/29 07:58:23;;;;;;;0.00;0.00;;;;;;;;;;6202769;23;20033;-55
2022/05/29 08:00:49;;;;;;;0.10;0.10;;;;;;;;;;6205682;23;20047;-56
2022/05/29 08:03:14;;;;;;;0.10;0.10;;;;;;;;;;6201821;23;20009;-55
2022/05/29 08:05:39;;;;;;;0.00;0.00;;;;;;;;;;6204393;23;20066;-55
2022/05/29 08:08:08;;;;;;;0.10;0.10;;;;;;;;;;6202568;23;20008;-55
2022/05/29 08:10:34;;;;;;;0.30;0.30;;;;;;;;;;6204113;23;20012;-57
2022/05/29 08:12:59;;;;;;;0.00;0.00;;;;;;;;;;6195479;23;20069;-55
2022/05/29 08:15:25;;;;;;;0.10;0.10;;;;;;;;;;6203092;23;20009;-54
2022/05/29 08:17:50;;;;;;;0.10;0.10;;;;;;;;;;6203694;23;20376;-56
2022/05/29 08:20:16;;;;;;;0.10;0.10;;;;;;;;;;6203812;23;20048;-56
2022/05/29 08:22:41;;;;;;;0.10;0.10;;;;;;;;;;6201769;23;20021;-55
2022/05/29 08:30:41;;;;;;;0.10;0.10;;;;;;;;;;6204575;23;20053;-56
2022/05/29 08:33:11;;;;;;;0.10;0.10;;;;;;;;;;6207175;23;20008;-56
2022/05/29 08:35:37;;;;;;;0.10;0.10;;;;;;;;;;6201448;23;20008;-57
2022/05/29 08:38:03;;;;;;;0.00;0.00;;;;;;;;;;6207898;23;20044;-56
2022/05/29 08:40:29;;;;;;;0.00;0.00;;;;;;;;;;6203138;23;20047;-54
2022/05/29 08:42:55;;;;;;;0.10;0.10;;;;;;;;;;6206318;23;20016;-58
2022/05/29 08:45:20;;;;;;;0.10;0.10;;;;;;;;;;6203642;23;20013;-58
2022/05/29 08:47:46;;;;;;;4.47;1.48;;;;;;;;;;6207654;23;20016;-56
2022/05/29 08:50:35;;;;;;;0.10;0.10;;;;;;;;;;6199657;23;20024;-58
2022/05/29 08:53:25;;;;;;;0.10;0.10;;;;;;;;;;6185337;23;20138;-56
2022/05/29 08:55:52;;;;;;;0.10;0.10;;;;;;;;;;6179416;23;20012;-57
2022/05/29 08:58:18;;;;;;;0.20;0.20;;;;;;;;;;6201125;23;20017;-57
2022/05/29 09:00:59;;;;;;;0.10;0.10;;;;;;;;;;6197158;23;20020;-54
2022/05/29 09:03:25;;;;;;;0.10;0.10;;;;;;;;;;6199432;23;20012;-52
2022/05/29 09:05:53;;;;;;;0.10;0.10;;;;;;;;;;6201630;23;20143;-53
2022/05/29 09:08:20;;;;;;;0.10;0.10;;;;;;;;;;6199801;23;20012;-57
2022/05/29 09:10:47;;;;;;;0.10;0.10;;;;;;;;;;6199904;23;20264;-56
2022/05/29 09:13:17;;;;;;;0.00;0.00;;;;;;;;;;6197726;23;20030;-55
2022/05/29 09:15:48;;;;;;;0.32;0.32;;;;;;;;;;6198841;23;20070;-55
2022/05/29 09:18:17;;;;;;;0.00;0.00;;;;;;;;;;6198791;23;20493;-56
2022/05/29 09:20:57;;;;;;;0.10;0.10;;;;;;;;;;6203148;23;20068;-55
2022/05/29 09:23:25;;;;;;;0.00;0.00;;;;;;;;;;6201232;23;20219;-56
2022/05/29 09:25:51;;;;;;;0.00;0.00;;;;;;;;;;6199183;23;20016;-56
2022/05/29 09:28:23;;;;;;;0.10;0.10;;;;;;;;;;6202152;23;20159;-53
2022/05/29 09:30:49;;;;;;;0.20;0.20;;;;;;;;;;6198223;23;20192;-56
2022/05/29 09:33:17;;;;;;;0.10;0.10;;;;;;;;;;6199353;23;20019;-55
2022/05/29 09:35:47;;;;;;;0.00;0.00;;;;;;;;;;6200456;23;20021;-56
2022/05/29 09:38:15;;;;;;;0.00;0.00;;;;;;;;;;6193699;23;20023;-54
2022/05/29 09:40:45;;;;;;;0.00;0.00;;;;;;;;;;6195478;23;20017;-56
2022/05/29 09:43:15;;;;;;;0.00;0.00;;;;;;;;;;6197073;23;20004;-56
2022/05/29 09:45:41;;;;;;;0.08;0.08;;;;;;;;;;6196966;23;20011;-56
2022/05/29 09:51:12;;;;;;;0.00;0.00;;;;;;;;;;6205023;23;20108;-56
2022/05/29 09:53:45;;;;;;;0.13;0.13;;;;;;;;;;6201573;23;20013;-55
2022/05/29 09:56:12;;;;;;;0.00;0.00;;;;;;;;;;6204694;23;20008;-56
2022/05/29 09:58:52;;;;;;;0.10;0.10;;;;;;;;;;6201786;23;20427;-57
2022/05/29 10:01:37;;;;;;;0.00;0.00;;;;;;;;;;6203859;23;20099;-55
2022/05/29 10:04:08;;;;;;;0.00;0.00;;;;;;;;;;6206238;23;20021;-57
2022/05/29 10:06:35;;;;;;;0.10;0.10;;;;;;;;;;6202774;23;20009;-57
2022/05/29 10:09:19;;;;;;;0.00;0.00;;;;;;;;;;6205365;23;20069;-57
2022/05/29 10:11:46;;;;;;;0.00;0.00;;;;;;;;;;6201337;23;20024;-55
2022/05/29 10:14:18;;;;;;;0.00;0.00;;;;;;;;;;6206674;23;20008;-57
2022/05/29 10:16:43;;;;;;;0.10;0.10;;;;;;;;;;6200124;23;20412;-56
2022/05/29 10:19:10;;;;;;;0.10;0.10;;;;;;;;;;6179056;23;20168;-56
2022/05/29 10:21:43;;;;;;;0.00;0.00;;;;;;;;;;6201462;23;20351;-56
2022/05/29 10:24:23;;;;;;;0.00;0.00;;;;;;;;;;6198637;23;20016;-55
2022/05/29 10:26:52;;;;;;;0.00;0.00;;;;;;;;;;6202663;23;20004;-54
2022/05/29 10:29:32;;;;;;;0.00;0.00;;;;;;;;;;6205575;23;20016;-56
2022/05/29 10:31:59;;;;;;;0.00;0.00;;;;;;;;;;6202636;23;20283;-54
2022/05/29 10:34:24;;;;;;;0.00;0.00;;;;;;;;;;6200022;23;20167;-54
2022/05/29 10:36:50;;;;;;;0.05;0.05;;;;;;;;;;6202801;23;20290;-55
2022/05/29 10:39:23;;;;;;;0.10;0.10;;;;;;;;;;6202793;23;20043;-54
2022/05/29 10:41:49;;;;;;;0.00;0.00;;;;;;;;;;6205546;23;20027;-54
2022/05/29 10:44:35;;;;;;;0.00;0.00;;;;;;;;;;6200163;23;20013;-55
2022/05/29 10:47:05;;;;;;;0.10;0.10;;;;;;;;;;6168713;23;20012;-53
2022/05/29 10:49:30;;;;;;;0.00;0.00;;;;;;;;;;6195318;23;20013;-55
2022/05/29 10:52:14;;;;;;;0.00;0.00;;;;;;;;;;6167586;23;20027;-55
2022/05/29 10:54:59;;;;;;;0.30;0.30;;;;;;;;;;6185044;23;20143;-57
2022/05/29 10:57:31;;;;;;;0.10;0.10;;;;;;;;;;6195083;23;20012;-54
2022/05/29 11:00:09;;;;;;;0.00;0.00;;;;;;;;;;6196241;23;20173;-56
2022/05/29 11:05:53;;;;;;;0.00;0.00;;;;;;;;;;6193578;23;20227;-56
2022/05/29 11:08:33;;;;;;;0.00;0.00;;;;;;;;;;6195333;23;20016;-55
2022/05/29 11:11:17;;;;;;;0.00;0.00;;;;;;;;;;6192342;23;20242;-56
2022/05/29 11:14:01;;;;;;;0.00;0.00;;;;;;;;;;6195263;23;20025;-54
2022/05/29 11:16:42;;;;;;;0.00;0.00;;;;;;;;;;6196476;23;20234;-55
2022/05/29 11:19:07;;;;;;;0.10;0.10;;;;;;;;;;6194774;23;20031;-55
2022/05/29 11:21:32;;;;;;;0.00;0.00;;;;;;;;;;6197287;23;20036;-56
2022/05/29 11:24:15;;;;;;;0.00;0.00;;;;;;;;;;6196633;23;20389;-56
2022/05/29 11:26:59;;;;;;;0.00;0.00;;;;;;;;;;6194746;23;20039;-56
2022/05/29 11:29:38;;;;;;;0.00;0.00;;;;;;;;;;6194707;23;20037;-55
2022/05/29 11:32:22;;;;;;;0.10;0.10;;;;;;;;;;6197538;23;20094;-56
2022/05/29 11:34:54;;;;;;;0.00;0.00;;;;;;;;;;6186690;23;20012;-56
2022/05/29 11:37:20;;;;;;;0.00;0.00;;;;;;;;;;6193324;23;20012;-56
2022/05/29 11:39:49;;;;;;;0.00;0.00;;;;;;;;;;6164880;23;20059;-55
2022/05/29 11:42:20;;;;;;;0.25;0.25;;;;;;;;;;6193521;23;20009;-56
2022/05/29 11:45:15;;;;;;;0.00;0.00;;;;;;;;;;6193434;23;20024;-57
2022/05/29 11:53:22;;;;;;;0.00;0.00;;;;;;;;;;6168584;23;20091;-56
2022/05/29 11:55:48;;;;;;;0.75;0.50;;;;;;;;;;6163300;23;20024;-55
2022/05/29 11:58:19;;;;;;;0.00;0.00;;;;;;;;;;6167724;23;20104;-56
2022/05/29 12:01:03;;;;;;;0.00;0.00;;;;;;;;;;6167135;23;20080;-54
2022/05/29 12:03:32;;;;;;;0.00;0.00;;;;;;;;;;6165739;23;20083;-53
2022/05/29 12:06:12;;;;;;;0.00;0.00;;;;;;;;;;6177922;23;20032;-54
2022/05/29 12:08:53;;;;;;;0.00;0.00;;;;;;;;;;6167141;23;20001;-55
2022/05/29 12:11:21;;;;;;;0.00;0.00;;;;;;;;;;6171817;23;20017;-56
2022/05/29 12:14:06;;;;;;;0.20;0.20;;;;;;;;;;6166872;23;20019;-55
2022/05/29 12:16:33;;;;;;;0.20;0.20;;;;;;;;;;6123462;23;20008;-56
2022/05/29 12:19:14;;;;;;;0.00;0.00;;;;;;;;;;6206408;23;20020;-54
2022/05/29 12:21:48;;;;;;;0.00;0.00;;;;;;;;;;6169409;23;20021;-56
2022/05/29 12:24:16;;;;;;;0.10;0.10;;;;;;;;;;6200408;23;20075;-56
2022/05/29 12:26:44;;;;;;;0.00;0.00;;;;;;;;;;6202289;23;20012;-56
2022/05/29 12:29:13;;;;;;;1.35;0.30;;;;;;;;;;6197823;23;20021;-56
2022/05/29 12:31:41;;;;;;;0.40;0.40;;;;;;;;;;6203612;23;20012;-55
2022/05/29 12:34:08;;;;;;;0.00;0.00;;;;;;;;;;6198858;23;20012;-54
2022/05/29 12:36:49;;;;;;;0.08;0.08;;;;;;;;;;6200846;23;20017;-55
2022/05/29 12:39:37;;;;;;;0.10;0.10;;;;;;;;;;6197507;23;20017;-55
2022/05/29 12:42:12;;;;;;;0.00;0.00;;;;;;;;;;6181900;23;20039;-58
2022/05/29 12:44:56;;;;;;;0.00;0.00;;;;;;;;;;6201389;23;20024;-56
2022/05/29 12:47:27;;;;;;;0.00;0.00;;;;;;;;;;6198795;23;20028;-57
2022/05/29 12:50:04;;;;;;;0.00;0.00;;;;;;;;;;6174112;23;20012;-57
2022/05/29 12:53:00;;;;;;;0.00;0.00;;;;;;;;;;6198868;23;20027;-56
2022/05/29 12:55:34;;;;;;;0.08;0.08;;;;;;;;;;6202168;23;20501;-55
2022/05/29 12:58:17;;;;;;;0.00;0.00;;;;;;;;;;6202400;23;20095;-55
2022/05/29 13:00:45;;;;;;;0.35;0.30;;;;;;;;;;6202175;23;20051;-56
2022/05/29 13:03:31;;;;;;;0.00;0.00;;;;;;;;;;6202202;23;20047;-57
2022/05/29 13:06:15;;;;;;;0.32;0.32;;;;;;;;;;6200396;23;20116;-55
2022/05/29 13:08:41;;;;;;;0.00;0.00;;;;;;;;;;6196061;23;20495;-57
2022/05/29 13:11:07;;;;;;;0.00;0.00;;;;;;;;;;6177773;23;20017;-55
2022/05/29 13:13:38;;;;;;;0.00;0.00;;;;;;;;;;6199322;23;20347;-56
2022/05/29 13:16:22;;;;;;;0.10;0.10;;;;;;;;;;6203466;23;20005;-55
2022/05/29 13:21:26;;;;;;;0.10;0.10;;;;;;;;;;6201091;23;20020;-54
2022/05/29 13:23:55;;;;;;;1.10;0.10;;;;;;;;;;6200825;23;20068;-56
2022/05/29 13:26:21;;;;;;;1.80;0.20;;;;;;;;;;6200969;23;20040;-55
2022/05/29 13:29:07;;;;;;;0.00;0.00;;;;;;;;;;6201028;23;20043;-55
2022/05/29 13:31:53;;;;;;;0.10;0.10;;;;;;;;;;6201482;23;20051;-55
2022/05/29 13:34:26;;;;;;;0.00;0.00;;;;;;;;;;6196481;23;20023;-54
2022/05/29 13:36:53;;;;;;;0.13;0.13;;;;;;;;;;6200424;23;20506;-56
2022/05/29 13:39:21;;;;;;;0.00;0.00;;;;;;;;;;6198466;23;20091;-56
2022/05/29 13:41:50;;;;;;;0.00;0.00;;;;;;;;;;6174586;23;20025;-57
2022/05/29 13:44:35;;;;;;;0.00;0.00;;;;;;;;;;6197031;23;20005;-56
2022/05/29 13:47:18;;;;;;;0.00;0.00;;;;;;;;;;6199040;23;20029;-56
2022/05/29 13:49:44;;;;;;;0.00;0.00;;;;;;;;;;6202147;23;20371;-57
2022/05/29 13:52:15;;;;;;;0.00;0.00;;;;;;;;;;6166029;23;20044;-57
2022/05/29 13:54:42;;;;;;;0.00;0.00;;;;;;;;;;6172793;23;20013;-54
2022/05/29 13:57:10;;;;;;;0.00;0.00;;;;;;;;;;6169491;23;20466;-56
2022/05/29 14:05:31;;;;;;;0.00;0.00;;;;;;;;;;6170628;23;20068;-58
2022/05/29 14:08:15;;;;;;;0.10;0.10;;;;;;;;;;6173306;23;20354;-56
2022/05/29 14:10:50;;;;;;;0.00;0.00;;;;;;;;;;6172375;23;20070;-56
2022/05/29 14:13:27;;;;;;;0.00;0.00;;;;;;;;;;6168467;23;20017;-56
2022/05/29 14:15:57;;;;;;;0.00;0.00;;;;;;;;;;6173576;23;20043;-54
2022/05/29 14:18:26;;;;;;;0.00;0.00;;;;;;;;;;6163902;23;20013;-56
2022/05/29 14:21:11;;;;;;;0.00;0.00;;;;;;;;;;6170850;23;20774;-55
2022/05/29 14:23:36;;;;;;;0.00;0.00;;;;;;;;;;6167693;23;20017;-56
2022/05/29 14:26:11;;;;;;;0.10;0.10;;;;;;;;;;6172755;23;20051;-55
2022/05/29 14:28:59;;;;;;;0.08;0.08;;;;;;;;;;6169593;23;20013;-55
2022/05/29 14:31:43;;;;;;;0.00;0.00;;;;;;;;;;6173533;23;20017;-54
2022/05/29 14:34:27;;;;;;;0.73;0.73;;;;;;;;;;6171995;23;20041;-54
2022/05/29 14:37:03;;;;;;;0.00;0.00;;;;;;;;;;6165837;23;20021;-57
2022/05/29 14:39:37;;;;;;;0.00;0.00;;;;;;;;;;6171965;23;20182;-56
2022/05/29 14:42:21;;;;;;;0.00;0.00;;;;;;;;;;6167935;23;20025;-58
2022/05/29 14:45:08;;;;;;;0.00;0.00;;;;;;;;;;6168110;23;20019;-57
2022/05/29 14:47:48;;;;;;;0.00;0.00;;;;;;;;;;6171550;23;20016;-57
2022/05/29 14:50:16;;;;;;;0.10;0.10;;;;;;;;;;6167316;23;20025;-56
2022/05/29 14:52:45;;;;;;;0.00;0.00;;;;;;;;;;6171543;23;20016;-51
2022/05/29 14:55:15;;;;;;;0.10;0.10;;;;;;;;;;6168967;23;20028;-56
2022/05/29 14:57:49;;;;;;;0.00;0.00;;;;;;;;;;6169217;23;20044;-57
2022/05/29 15:00:35;;;;;;;0.00;0.00;;;;;;;;;;6172542;23;20029;-55
2022/05/29 15:03:08;;;;;;;0.00;0.00;;;;;;;;;;6169754;23;20017;-55
2022/05/29 15:05:34;;;;;;;0.10;0.10;;;;;;;;;;6167005;23;20032;-56
2022/05/29 15:10:53;;;;;;;0.00;0.00;;;;;;;;;;6168284;23;20090;-58
2022/05/29 15:13:23;;;;;;;0.25;0.25;;;;;;;;;;6152138;23;20020;-57
2022/05/29 15:15:48;;;;;;;;;;;;;;;;;;6172615;23;20013;-56
2022/05/29 15:18:19;;;;;;;0.00;0.00;;;;;;;;;;6167478;23;19944;-57
2022/05/29 15:26:15;;;;;;;0.00;0.00;;;;;;;;;;6168886;23;20109;-58
2022/05/29 15:28:50;;;;;;;0.22;0.22;;;;;;;;;;6170929;23;20016;-58
2022/05/29 15:31:28;;;;;;;0.00;0.00;;;;;;;;;;6171324;23;20036;-58
2022/05/29 15:34:02;;;;;;;0.00;0.00;;;;;;;;;;6166476;23;20253;-58
2022/05/29 15:36:32;;;;;;;0.00;0.00;;;;;;;;;;6171218;23;20045;-58
2022/05/29 15:39:11;;;;;;;0.15;0.15;;;;;;;;;;6168742;23;20020;-57
2022/05/29 15:41:52;;;;;;;0.00;0.00;;;;;;;;;;6170320;23;20067;-57
2022/05/29 15:44:24;;;;;;;0.00;0.00;;;;;;;;;;6168335;23;20566;-57
2022/05/29 15:46:55;;;;;;;0.00;0.00;;;;;;;;;;6170694;23;20068;-58